sensor_id;sensor_type;location;lat;lon;timestamp;P1;durP1;ratioP1;P2;durP2;ratioP2
31906;SDS011;18455;50.858;13.662;2022-10-16T00:02:46;5.13;;;4.63;;
31906;SDS011;18455;50.858;13.662;2022-10-16T00:07:46;5.47;;;4.93;;
31906;SDS011;18455;50.858;13.662;2022-10-16T00:12:47;6.40;;;5.80;;
31906;SDS011;18455;50.858;13.662;2022-10-16T00:17:47;5.97;;;5.32;;
31906;SDS011;18455;50.858;13.662;2022-10-16T00:22:48;7.68;;;6.32;;
31906;SDS011;18455;50.858;13.662;2022-10-16T00:27:48;7.53;;;6.00;;
31906;SDS011;18455;50.858;13.662;2022-10-16T00:32:48;11.40;;;6.80;;
31906;SDS011;18455;50.858;13.662;2022-10-16T00:37:49;8.82;;;6.80;;
31906;SDS011;18455;50.858;13.662;2022-10-16T00:42:49;5.82;;;5.32;;
31906;SDS011;18455;50.858;13.662;2022-10-16T00:47:50;7.43;;;5.80;;
31906;SDS011;18455;50.858;13.662;2022-10-16T00:52:52;6.95;;;6.07;;
31906;SDS011;18455;50.858;13.662;2022-10-16T00:57:53;6.70;;;5.60;;
31906;SDS011;18455;50.858;13.662;2022-10-16T01:02:54;9.27;;;6.25;;
31906;SDS011;18455;50.858;13.662;2022-10-16T01:07:58;8.38;;;5.85;;
31906;SDS011;18455;50.858;13.662;2022-10-16T01:13:10;6.13;;;5.40;;
31906;SDS011;18455;50.858;13.662;2022-10-16T01:18:18;6.10;;;5.03;;
31906;SDS011;18455;50.858;13.662;2022-10-16T01:33:51;7.57;;;4.72;;
31906;SDS011;18455;50.858;13.662;2022-10-16T01:39:20;6.53;;;4.70;;
31906;SDS011;18455;50.858;13.662;2022-10-16T01:44:26;5.50;;;4.55;;
31906;SDS011;18455;50.858;13.662;2022-10-16T01:49:30;5.15;;;4.65;;
31906;SDS011;18455;50.858;13.662;2022-10-16T01:54:33;9.38;;;4.57;;
31906;SDS011;18455;50.858;13.662;2022-10-16T01:59:35;5.07;;;4.30;;
31906;SDS011;18455;50.858;13.662;2022-10-16T02:09:45;4.60;;;4.20;;
31906;SDS011;18455;50.858;13.662;2022-10-16T02:14:45;4.40;;;4.00;;
31906;SDS011;18455;50.858;13.662;2022-10-16T02:19:46;4.72;;;3.80;;
31906;SDS011;18455;50.858;13.662;2022-10-16T02:24:53;4.38;;;4.00;;
31906;SDS011;18455;50.858;13.662;2022-10-16T02:30:05;4.60;;;4.10;;
31906;SDS011;18455;50.858;13.662;2022-10-16T02:35:25;5.70;;;4.32;;
31906;SDS011;18455;50.858;13.662;2022-10-16T02:40:27;3.97;;;3.65;;
31906;SDS011;18455;50.858;13.662;2022-10-16T02:45:27;4.75;;;4.35;;
31906;SDS011;18455;50.858;13.662;2022-10-16T02:50:29;4.30;;;3.92;;
31906;SDS011;18455;50.858;13.662;2022-10-16T02:55:29;4.95;;;4.40;;
31906;SDS011;18455;50.858;13.662;2022-10-16T03:00:29;4.68;;;4.28;;
31906;SDS011;18455;50.858;13.662;2022-10-16T03:05:30;4.43;;;4.03;;
31906;SDS011;18455;50.858;13.662;2022-10-16T03:10:30;5.20;;;4.70;;
31906;SDS011;18455;50.858;13.662;2022-10-16T03:15:31;4.80;;;4.22;;
31906;SDS011;18455;50.858;13.662;2022-10-16T03:20:31;4.50;;;4.10;;
31906;SDS011;18455;50.858;13.662;2022-10-16T03:25:31;6.05;;;4.03;;
31906;SDS011;18455;50.858;13.662;2022-10-16T03:30:32;5.43;;;3.28;;
31906;SDS011;18455;50.858;13.662;2022-10-16T03:35:32;2.90;;;2.70;;
31906;SDS011;18455;50.858;13.662;2022-10-16T03:40:33;3.33;;;2.65;;
31906;SDS011;18455;50.858;13.662;2022-10-16T03:45:33;3.15;;;2.85;;
31906;SDS011;18455;50.858;13.662;2022-10-16T03:50:33;4.47;;;2.70;;
31906;SDS011;18455;50.858;13.662;2022-10-16T03:55:34;3.33;;;2.33;;
31906;SDS011;18455;50.858;13.662;2022-10-16T04:00:34;2.50;;;2.25;;
31906;SDS011;18455;50.858;13.662;2022-10-16T04:05:35;5.82;;;2.83;;
31906;SDS011;18455;50.858;13.662;2022-10-16T04:10:35;4.28;;;3.10;;
31906;SDS011;18455;50.858;13.662;2022-10-16T04:15:36;2.92;;;2.72;;
31906;SDS011;18455;50.858;13.662;2022-10-16T04:20:36;3.67;;;2.90;;
31906;SDS011;18455;50.858;13.662;2022-10-16T04:25:36;3.72;;;3.40;;
31906;SDS011;18455;50.858;13.662;2022-10-16T04:30:38;3.78;;;3.30;;
31906;SDS011;18455;50.858;13.662;2022-10-16T04:35:38;3.90;;;3.60;;
31906;SDS011;18455;50.858;13.662;2022-10-16T04:40:39;3.78;;;3.38;;
31906;SDS011;18455;50.858;13.662;2022-10-16T04:45:42;5.05;;;3.15;;
31906;SDS011;18455;50.858;13.662;2022-10-16T04:50:42;3.70;;;3.40;;
31906;SDS011;18455;50.858;13.662;2022-10-16T04:55:42;5.22;;;3.22;;
31906;SDS011;18455;50.858;13.662;2022-10-16T05:00:44;3.58;;;3.20;;
31906;SDS011;18455;50.858;13.662;2022-10-16T05:05:46;5.22;;;3.33;;
31906;SDS011;18455;50.858;13.662;2022-10-16T05:10:46;5.60;;;4.00;;
31906;SDS011;18455;50.858;13.662;2022-10-16T05:15:47;4.60;;;4.20;;
31906;SDS011;18455;50.858;13.662;2022-10-16T05:20:48;5.28;;;3.80;;
31906;SDS011;18455;50.858;13.662;2022-10-16T05:25:52;5.03;;;4.63;;
31906;SDS011;18455;50.858;13.662;2022-10-16T05:30:54;4.47;;;4.07;;
31906;SDS011;18455;50.858;13.662;2022-10-16T05:35:54;4.93;;;4.53;;
31906;SDS011;18455;50.858;13.662;2022-10-16T05:40:55;11.35;;;8.38;;
31906;SDS011;18455;50.858;13.662;2022-10-16T05:45:56;6.07;;;5.45;;
31906;SDS011;18455;50.858;13.662;2022-10-16T05:51:04;4.97;;;4.55;;
31906;SDS011;18455;50.858;13.662;2022-10-16T05:56:08;4.55;;;4.15;;
31906;SDS011;18455;50.858;13.662;2022-10-16T06:01:16;4.10;;;3.80;;
31906;SDS011;18455;50.858;13.662;2022-10-16T06:06:22;3.25;;;3.05;;
31906;SDS011;18455;50.858;13.662;2022-10-16T06:11:25;6.20;;;5.60;;
31906;SDS011;18455;50.858;13.662;2022-10-16T06:16:27;8.00;;;5.30;;
31906;SDS011;18455;50.858;13.662;2022-10-16T06:21:27;4.20;;;3.80;;
31906;SDS011;18455;50.858;13.662;2022-10-16T06:26:29;3.47;;;2.40;;
31906;SDS011;18455;50.858;13.662;2022-10-16T06:31:30;2.78;;;2.58;;
31906;SDS011;18455;50.858;13.662;2022-10-16T06:36:33;2.35;;;2.10;;
31906;SDS011;18455;50.858;13.662;2022-10-16T06:41:33;1.75;;;1.63;;
31906;SDS011;18455;50.858;13.662;2022-10-16T06:46:44;1.80;;;1.70;;
31906;SDS011;18455;50.858;13.662;2022-10-16T06:51:45;2.05;;;1.27;;
31906;SDS011;18455;50.858;13.662;2022-10-16T06:56:45;2.25;;;2.05;;
31906;SDS011;18455;50.858;13.662;2022-10-16T07:01:45;2.50;;;2.22;;
31906;SDS011;18455;50.858;13.662;2022-10-16T07:06:46;5.30;;;3.10;;
31906;SDS011;18455;50.858;13.662;2022-10-16T07:11:46;5.20;;;4.53;;
31906;SDS011;18455;50.858;13.662;2022-10-16T07:16:47;4.30;;;4.00;;
31906;SDS011;18455;50.858;13.662;2022-10-16T07:21:48;6.43;;;5.78;;
31906;SDS011;18455;50.858;13.662;2022-10-16T07:26:48;7.00;;;6.40;;
31906;SDS011;18455;50.858;13.662;2022-10-16T07:31:49;8.05;;;7.35;;
31906;SDS011;18455;50.858;13.662;2022-10-16T07:36:49;11.65;;;6.07;;
31906;SDS011;18455;50.858;13.662;2022-10-16T07:41:50;8.02;;;6.47;;
31906;SDS011;18455;50.858;13.662;2022-10-16T07:46:51;6.70;;;5.88;;
31906;SDS011;18455;50.858;13.662;2022-10-16T07:51:51;6.05;;;5.55;;
31906;SDS011;18455;50.858;13.662;2022-10-16T07:56:51;5.60;;;5.10;;
31906;SDS011;18455;50.858;13.662;2022-10-16T08:01:52;4.55;;;4.15;;
31906;SDS011;18455;50.858;13.662;2022-10-16T08:06:52;3.95;;;3.50;;
31906;SDS011;18455;50.858;13.662;2022-10-16T08:11:54;3.90;;;3.60;;
31906;SDS011;18455;50.858;13.662;2022-10-16T08:16:54;7.07;;;3.15;;
31906;SDS011;18455;50.858;13.662;2022-10-16T08:21:55;3.83;;;3.25;;
31906;SDS011;18455;50.858;13.662;2022-10-16T08:26:55;3.38;;;3.08;;
31906;SDS011;18455;50.858;13.662;2022-10-16T08:31:55;2.10;;;1.80;;
31906;SDS011;18455;50.858;13.662;2022-10-16T08:36:56;2.20;;;2.10;;
31906;SDS011;18455;50.858;13.662;2022-10-16T08:42:15;3.58;;;1.60;;
31906;SDS011;18455;50.858;13.662;2022-10-16T08:47:47;1.40;;;1.27;;
31906;SDS011;18455;50.858;13.662;2022-10-16T08:52:50;2.97;;;1.10;;
31906;SDS011;18455;50.858;13.662;2022-10-16T08:57:51;2.75;;;1.25;;
31906;SDS011;18455;50.858;13.662;2022-10-16T09:03:05;1.08;;;1.08;;
31906;SDS011;18455;50.858;13.662;2022-10-16T09:08:17;1.02;;;0.90;;
31906;SDS011;18455;50.858;13.662;2022-10-16T09:13:50;0.95;;;0.80;;
31906;SDS011;18455;50.858;13.662;2022-10-16T09:19:03;2.72;;;0.70;;
31906;SDS011;18455;50.858;13.662;2022-10-16T09:24:11;1.73;;;0.80;;
31906;SDS011;18455;50.858;13.662;2022-10-16T09:29:14;1.30;;;1.20;;
31906;SDS011;18455;50.858;13.662;2022-10-16T09:34:27;2.40;;;1.50;;
31906;SDS011;18455;50.858;13.662;2022-10-16T09:39:30;2.00;;;1.27;;
31906;SDS011;18455;50.858;13.662;2022-10-16T09:44:31;2.55;;;1.80;;
31906;SDS011;18455;50.858;13.662;2022-10-16T09:49:31;3.50;;;1.70;;
31906;SDS011;18455;50.858;13.662;2022-10-16T09:54:32;1.92;;;1.63;;
31906;SDS011;18455;50.858;13.662;2022-10-16T09:59:32;3.85;;;1.63;;
31906;SDS011;18455;50.858;13.662;2022-10-16T10:04:50;2.33;;;2.13;;
31906;SDS011;18455;50.858;13.662;2022-10-16T10:09:54;3.60;;;2.85;;
31906;SDS011;18455;50.858;13.662;2022-10-16T10:14:56;5.85;;;2.78;;
31906;SDS011;18455;50.858;13.662;2022-10-16T10:19:59;2.85;;;2.65;;
31906;SDS011;18455;50.858;13.662;2022-10-16T10:35:54;1.70;;;1.60;;
31906;SDS011;18455;50.858;13.662;2022-10-16T10:46:23;0.73;;;0.73;;
31906;SDS011;18455;50.858;13.662;2022-10-16T10:51:31;0.60;;;0.60;;
31906;SDS011;18455;50.858;13.662;2022-10-16T11:07:02;0.40;;;0.40;;
31906;SDS011;18455;50.858;13.662;2022-10-16T11:17:32;0.90;;;0.50;;
31906;SDS011;18455;50.858;13.662;2022-10-16T11:27:38;0.93;;;0.70;;
31906;SDS011;18455;50.858;13.662;2022-10-16T11:33:00;2.55;;;0.60;;
31906;SDS011;18455;50.858;13.662;2022-10-16T11:38:09;0.47;;;0.47;;
31906;SDS011;18455;50.858;13.662;2022-10-16T11:43:24;1.23;;;0.55;;
31906;SDS011;18455;50.858;13.662;2022-10-16T11:54:02;0.63;;;0.45;;
31906;SDS011;18455;50.858;13.662;2022-10-16T11:59:13;0.50;;;0.50;;
31906;SDS011;18455;50.858;13.662;2022-10-16T12:04:22;0.98;;;0.60;;
31906;SDS011;18455;50.858;13.662;2022-10-16T12:10:22;0.40;;;0.40;;
31906;SDS011;18455;50.858;13.662;2022-10-16T12:15:25;0.52;;;0.50;;
31906;SDS011;18455;50.858;13.662;2022-10-16T12:20:28;0.50;;;0.50;;
31906;SDS011;18455;50.858;13.662;2022-10-16T12:30:35;0.70;;;0.70;;
31906;SDS011;18455;50.858;13.662;2022-10-16T12:35:42;0.47;;;0.45;;
31906;SDS011;18455;50.858;13.662;2022-10-16T12:40:44;2.42;;;0.60;;
31906;SDS011;18455;50.858;13.662;2022-10-16T12:45:47;0.50;;;0.50;;
31906;SDS011;18455;50.858;13.662;2022-10-16T12:51:10;0.60;;;0.50;;
31906;SDS011;18455;50.858;13.662;2022-10-16T12:56:14;4.85;;;0.50;;
31906;SDS011;18455;50.858;13.662;2022-10-16T13:34:19;2.60;;;1.10;;
31906;SDS011;18455;50.858;13.662;2022-10-16T13:39:25;2.17;;;0.95;;
31906;SDS011;18455;50.858;13.662;2022-10-16T13:44:26;4.75;;;1.25;;
31906;SDS011;18455;50.858;13.662;2022-10-16T13:49:26;1.13;;;0.98;;
31906;SDS011;18455;50.858;13.662;2022-10-16T13:54:27;1.00;;;1.00;;
31906;SDS011;18455;50.858;13.662;2022-10-16T13:59:36;1.55;;;0.90;;
31906;SDS011;18455;50.858;13.662;2022-10-16T14:04:40;2.08;;;1.00;;
31906;SDS011;18455;50.858;13.662;2022-10-16T14:09:40;1.20;;;1.08;;
31906;SDS011;18455;50.858;13.662;2022-10-16T14:14:41;1.10;;;1.00;;
31906;SDS011;18455;50.858;13.662;2022-10-16T14:19:47;3.70;;;0.70;;
31906;SDS011;18455;50.858;13.662;2022-10-16T14:24:48;0.80;;;0.80;;
31906;SDS011;18455;50.858;13.662;2022-10-16T14:29:49;3.78;;;0.80;;
31906;SDS011;18455;50.858;13.662;2022-10-16T14:34:53;0.90;;;0.68;;
31906;SDS011;18455;50.858;13.662;2022-10-16T14:39:54;1.75;;;0.60;;
31906;SDS011;18455;50.858;13.662;2022-10-16T14:44:55;0.50;;;0.50;;
31906;SDS011;18455;50.858;13.662;2022-10-16T14:49:56;2.33;;;0.65;;
31906;SDS011;18455;50.858;13.662;2022-10-16T14:54:59;3.05;;;0.70;;
31906;SDS011;18455;50.858;13.662;2022-10-16T14:59:59;1.17;;;0.60;;
31906;SDS011;18455;50.858;13.662;2022-10-16T15:10:20;4.55;;;1.08;;
31906;SDS011;18455;50.858;13.662;2022-10-16T15:15:24;2.10;;;0.77;;
31906;SDS011;18455;50.858;13.662;2022-10-16T15:20:29;1.55;;;0.70;;
31906;SDS011;18455;50.858;13.662;2022-10-16T15:25:35;1.23;;;0.60;;
31906;SDS011;18455;50.858;13.662;2022-10-16T15:30:36;1.80;;;0.70;;
31906;SDS011;18455;50.858;13.662;2022-10-16T15:35:37;0.75;;;0.70;;
31906;SDS011;18455;50.858;13.662;2022-10-16T15:40:37;2.50;;;0.95;;
31906;SDS011;18455;50.858;13.662;2022-10-16T15:45:37;2.10;;;1.10;;
31906;SDS011;18455;50.858;13.662;2022-10-16T15:50:38;2.30;;;1.70;;
31906;SDS011;18455;50.858;13.662;2022-10-16T15:55:39;2.28;;;1.10;;
31906;SDS011;18455;50.858;13.662;2022-10-16T16:00:40;2.78;;;2.58;;
31906;SDS011;18455;50.858;13.662;2022-10-16T16:05:40;1.40;;;1.30;;
31906;SDS011;18455;50.858;13.662;2022-10-16T16:10:40;4.43;;;2.00;;
31906;SDS011;18455;50.858;13.662;2022-10-16T16:15:41;11.10;;;8.25;;
31906;SDS011;18455;50.858;13.662;2022-10-16T16:20:41;8.63;;;7.60;;
31906;SDS011;18455;50.858;13.662;2022-10-16T16:25:41;14.88;;;8.18;;
31906;SDS011;18455;50.858;13.662;2022-10-16T16:30:42;23.27;;;11.55;;
31906;SDS011;18455;50.858;13.662;2022-10-16T16:35:42;9.60;;;3.80;;
31906;SDS011;18455;50.858;13.662;2022-10-16T16:40:43;4.05;;;2.90;;
31906;SDS011;18455;50.858;13.662;2022-10-16T16:45:43;3.58;;;2.53;;
31906;SDS011;18455;50.858;13.662;2022-10-16T16:50:44;4.85;;;3.08;;
31906;SDS011;18455;50.858;13.662;2022-10-16T16:55:44;8.55;;;2.80;;
31906;SDS011;18455;50.858;13.662;2022-10-16T17:00:45;5.72;;;2.00;;
31906;SDS011;18455;50.858;13.662;2022-10-16T17:05:56;5.70;;;2.28;;
31906;SDS011;18455;50.858;13.662;2022-10-16T17:10:59;5.07;;;2.40;;
31906;SDS011;18455;50.858;13.662;2022-10-16T17:16:00;5.50;;;2.60;;
31906;SDS011;18455;50.858;13.662;2022-10-16T17:21:02;4.20;;;2.35;;
31906;SDS011;18455;50.858;13.662;2022-10-16T17:26:05;6.43;;;5.55;;
31906;SDS011;18455;50.858;13.662;2022-10-16T17:31:11;6.10;;;3.17;;
31906;SDS011;18455;50.858;13.662;2022-10-16T17:36:13;4.85;;;2.78;;
31906;SDS011;18455;50.858;13.662;2022-10-16T17:41:15;4.75;;;2.25;;
31906;SDS011;18455;50.858;13.662;2022-10-16T17:46:20;5.55;;;3.00;;
31906;SDS011;18455;50.858;13.662;2022-10-16T17:51:23;8.43;;;2.70;;
31906;SDS011;18455;50.858;13.662;2022-10-16T17:56:25;5.63;;;2.42;;
31906;SDS011;18455;50.858;13.662;2022-10-16T18:01:27;9.70;;;3.17;;
31906;SDS011;18455;50.858;13.662;2022-10-16T18:06:30;8.93;;;3.75;;
31906;SDS011;18455;50.858;13.662;2022-10-16T18:11:31;13.02;;;3.00;;
31906;SDS011;18455;50.858;13.662;2022-10-16T18:16:31;4.95;;;2.92;;
31906;SDS011;18455;50.858;13.662;2022-10-16T18:21:32;6.50;;;2.15;;
31906;SDS011;18455;50.858;13.662;2022-10-16T18:26:32;4.78;;;2.33;;
31906;SDS011;18455;50.858;13.662;2022-10-16T18:31:33;3.70;;;2.20;;
31906;SDS011;18455;50.858;13.662;2022-10-16T18:36:34;8.13;;;3.25;;
31906;SDS011;18455;50.858;13.662;2022-10-16T18:41:35;8.38;;;2.25;;
31906;SDS011;18455;50.858;13.662;2022-10-16T18:46:37;3.20;;;2.35;;
31906;SDS011;18455;50.858;13.662;2022-10-16T18:51:38;8.25;;;2.15;;
31906;SDS011;18455;50.858;13.662;2022-10-16T18:56:39;8.82;;;2.00;;
31906;SDS011;18455;50.858;13.662;2022-10-16T19:01:40;3.88;;;2.00;;
31906;SDS011;18455;50.858;13.662;2022-10-16T19:06:46;6.63;;;2.90;;
31906;SDS011;18455;50.858;13.662;2022-10-16T19:11:48;8.00;;;2.20;;
31906;SDS011;18455;50.858;13.662;2022-10-16T19:16:49;3.70;;;1.90;;
31906;SDS011;18455;50.858;13.662;2022-10-16T19:21:49;4.80;;;2.13;;
31906;SDS011;18455;50.858;13.662;2022-10-16T19:26:55;3.10;;;2.00;;
31906;SDS011;18455;50.858;13.662;2022-10-16T19:31:57;2.00;;;1.73;;
31906;SDS011;18455;50.858;13.662;2022-10-16T19:36:58;5.22;;;2.35;;
31906;SDS011;18455;50.858;13.662;2022-10-16T19:41:58;6.78;;;2.42;;
31906;SDS011;18455;50.858;13.662;2022-10-16T19:46:58;7.60;;;2.33;;
31906;SDS011;18455;50.858;13.662;2022-10-16T19:51:59;2.75;;;1.90;;
31906;SDS011;18455;50.858;13.662;2022-10-16T19:56:59;4.38;;;1.90;;
31906;SDS011;18455;50.858;13.662;2022-10-16T20:02:00;9.88;;;2.00;;
31906;SDS011;18455;50.858;13.662;2022-10-16T20:07:01;2.33;;;2.00;;
31906;SDS011;18455;50.858;13.662;2022-10-16T20:12:01;7.18;;;1.90;;
31906;SDS011;18455;50.858;13.662;2022-10-16T20:17:02;8.88;;;1.85;;
31906;SDS011;18455;50.858;13.662;2022-10-16T20:22:02;6.78;;;1.90;;
31906;SDS011;18455;50.858;13.662;2022-10-16T20:27:03;5.13;;;1.70;;
31906;SDS011;18455;50.858;13.662;2022-10-16T20:32:03;2.90;;;2.13;;
31906;SDS011;18455;50.858;13.662;2022-10-16T20:37:04;8.77;;;2.10;;
31906;SDS011;18455;50.858;13.662;2022-10-16T20:42:04;3.53;;;1.90;;
31906;SDS011;18455;50.858;13.662;2022-10-16T20:47:05;4.47;;;2.00;;
31906;SDS011;18455;50.858;13.662;2022-10-16T20:52:05;7.05;;;1.80;;
31906;SDS011;18455;50.858;13.662;2022-10-16T20:57:05;3.13;;;2.10;;
31906;SDS011;18455;50.858;13.662;2022-10-16T21:02:06;4.65;;;1.60;;
31906;SDS011;18455;50.858;13.662;2022-10-16T21:07:07;3.38;;;2.08;;
31906;SDS011;18455;50.858;13.662;2022-10-16T21:12:08;3.80;;;1.52;;
31906;SDS011;18455;50.858;13.662;2022-10-16T21:17:09;4.50;;;1.88;;
31906;SDS011;18455;50.858;13.662;2022-10-16T21:22:09;3.15;;;1.50;;
31906;SDS011;18455;50.858;13.662;2022-10-16T21:27:10;6.30;;;1.95;;
31906;SDS011;18455;50.858;13.662;2022-10-16T21:32:10;2.65;;;1.90;;
31906;SDS011;18455;50.858;13.662;2022-10-16T21:37:11;4.10;;;2.10;;
31906;SDS011;18455;50.858;13.662;2022-10-16T21:42:11;5.13;;;2.03;;
31906;SDS011;18455;50.858;13.662;2022-10-16T21:47:11;6.20;;;2.00;;
31906;SDS011;18455;50.858;13.662;2022-10-16T21:52:12;14.88;;;2.35;;
31906;SDS011;18455;50.858;13.662;2022-10-16T21:57:12;6.72;;;2.40;;
31906;SDS011;18455;50.858;13.662;2022-10-16T22:02:13;3.53;;;1.80;;
31906;SDS011;18455;50.858;13.662;2022-10-16T22:07:13;5.78;;;2.35;;
31906;SDS011;18455;50.858;13.662;2022-10-16T22:12:13;6.80;;;2.10;;
31906;SDS011;18455;50.858;13.662;2022-10-16T22:17:18;9.48;;;1.95;;
31906;SDS011;18455;50.858;13.662;2022-10-16T22:22:18;8.25;;;2.97;;
31906;SDS011;18455;50.858;13.662;2022-10-16T22:27:19;5.45;;;2.20;;
31906;SDS011;18455;50.858;13.662;2022-10-16T22:32:19;4.60;;;2.30;;
31906;SDS011;18455;50.858;13.662;2022-10-16T22:37:20;6.82;;;2.08;;
31906;SDS011;18455;50.858;13.662;2022-10-16T22:42:20;11.38;;;2.58;;
31906;SDS011;18455;50.858;13.662;2022-10-16T22:47:20;3.97;;;2.33;;
31906;SDS011;18455;50.858;13.662;2022-10-16T22:52:21;5.70;;;2.50;;
31906;SDS011;18455;50.858;13.662;2022-10-16T22:57:21;7.78;;;2.67;;
31906;SDS011;18455;50.858;13.662;2022-10-16T23:02:21;3.00;;;2.28;;
31906;SDS011;18455;50.858;13.662;2022-10-16T23:07:22;6.38;;;2.45;;
31906;SDS011;18455;50.858;13.662;2022-10-16T23:12:22;3.22;;;2.28;;
31906;SDS011;18455;50.858;13.662;2022-10-16T23:17:25;8.65;;;2.47;;
31906;SDS011;18455;50.858;13.662;2022-10-16T23:22:25;4.63;;;2.30;;
31906;SDS011;18455;50.858;13.662;2022-10-16T23:27:25;4.45;;;2.30;;
31906;SDS011;18455;50.858;13.662;2022-10-16T23:32:26;5.30;;;2.45;;
31906;SDS011;18455;50.858;13.662;2022-10-16T23:37:26;2.13;;;1.85;;
31906;SDS011;18455;50.858;13.662;2022-10-16T23:42:26;3.25;;;2.17;;
31906;SDS011;18455;50.858;13.662;2022-10-16T23:47:27;6.82;;;2.08;;
31906;SDS011;18455;50.858;13.662;2022-10-16T23:52:27;5.60;;;1.98;;
31906;SDS011;18455;50.858;13.662;2022-10-16T23:57:27;4.30;;;2.17;;
